Time;durP1;ratioP1;P1;durP2;ratioP2;P2;SDS_P1;SDS_P2;PMS_P1;PMS_P2;Temp;Humidity;BMP_temperature;BMP_pressure;BME280_temperature;BME280_humidity;BME280_pressure;Samples;Min_cycle;Max_cycle;Signal;HPM_P1;HPM_P2
2022/09/12 00:01:50;;;;;;;1.20;1.00;;;15.50;99.90;;;;;;6112114;23;20493;-75
2022/09/12 00:04:17;;;;;;;1.50;1.10;;;15.50;99.90;;;;;;6112491;23;20081;-75
2022/09/12 00:06:44;;;;;;;1.38;1.10;;;15.50;99.90;;;;;;6114140;23;20055;-75
2022/09/12 00:09:11;;;;;;;1.33;1.20;;;15.50;99.90;;;;;;6067899;23;20018;-74
2022/09/12 00:11:40;;;;;;;1.48;1.20;;;15.50;99.90;;;;;;6091835;23;20039;-75
2022/09/12 00:14:10;;;;;;;1.10;1.00;;;15.50;99.90;;;;;;6092180;23;20170;-75
2022/09/12 00:16:37;;;;;;;0.85;0.80;;;15.40;99.90;;;;;;6090608;23;20038;-75
2022/09/12 00:19:04;;;;;;;1.20;1.10;;;15.40;99.90;;;;;;6067464;23;20113;-74
2022/09/12 00:21:32;;;;;;;1.25;1.10;;;15.40;99.90;;;;;;6067463;23;20366;-75
2022/09/12 00:23:59;;;;;;;1.25;1.10;;;15.40;99.90;;;;;;6089017;23;20424;-75
2022/09/12 00:26:26;;;;;;;1.20;1.08;;;15.40;99.90;;;;;;6063990;23;20277;-75
2022/09/12 00:28:53;;;;;;;1.25;1.15;;;15.40;99.90;;;;;;6089213;23;20351;-75
2022/09/12 00:31:22;;;;;;;1.02;0.93;;;15.40;99.90;;;;;;6090238;23;20030;-74
2022/09/12 00:33:49;;;;;;;1.20;1.10;;;15.40;99.90;;;;;;6066448;23;20105;-75
2022/09/12 00:36:18;;;;;;;1.48;1.15;;;15.40;99.90;;;;;;6067515;23;20325;-75
2022/09/12 00:38:45;;;;;;;1.75;1.30;;;15.40;99.90;;;;;;6067468;23;20072;-75
2022/09/12 00:41:21;;;;;;;1.40;1.02;;;15.40;99.90;;;;;;6091427;23;20032;-75
2022/09/12 00:43:56;;;;;;;1.50;0.95;;;15.40;99.90;;;;;;6091087;23;20093;-74
2022/09/12 00:46:39;;;;;;;1.40;1.00;;;15.40;99.90;;;;;;6092185;23;20104;-75
2022/09/12 00:49:11;;;;;;;1.00;0.90;;;15.40;99.90;;;;;;6090331;23;20025;-75
2022/09/12 00:51:38;;;;;;;1.25;1.00;;;15.50;99.90;;;;;;6090683;23;20030;-74
2022/09/12 00:54:07;;;;;;;1.33;1.23;;;15.50;99.90;;;;;;6090758;23;20166;-75
2022/09/12 00:56:34;;;;;;;1.42;1.27;;;15.60;99.90;;;;;;6091645;23;20429;-75
2022/09/12 00:59:10;;;;;;;1.45;1.35;;;15.70;99.90;;;;;;6087510;23;20426;-75
2022/09/12 01:01:37;;;;;;;1.35;1.15;;;15.70;99.90;;;;;;6085582;23;20030;-75
2022/09/12 01:04:04;;;;;;;2.15;1.48;;;15.80;99.90;;;;;;6086448;23;20187;-75
2022/09/12 01:06:36;;;;;;;1.42;1.27;;;16.00;99.90;;;;;;6086608;23;20462;-75
2022/09/12 01:09:03;;;;;;;1.45;1.27;;;16.00;99.90;;;;;;6063797;23;20104;-75
2022/09/12 01:11:34;;;;;;;1.13;1.00;;;16.20;99.90;;;;;;6087243;23;20029;-75
2022/09/12 01:14:01;;;;;;;1.15;1.05;;;16.20;99.90;;;;;;6086748;23;20437;-74
2022/09/12 01:16:28;;;;;;;1.10;1.00;;;16.30;99.90;;;;;;6086130;23;20022;-75
2022/09/12 01:19:11;;;;;;;1.40;1.30;;;16.40;99.90;;;;;;6063097;23;20026;-75
2022/09/12 01:21:53;;;;;;;1.05;0.95;;;16.40;99.90;;;;;;6112946;23;20331;-75
2022/09/12 01:25:05;;;;;;;1.02;0.93;;;16.50;99.90;;;;;;6063561;23;20029;-75
2022/09/12 01:27:41;;;;;;;1.48;1.25;;;16.60;99.90;;;;;;6106751;23;20025;-75
2022/09/12 01:30:23;;;;;;;1.00;0.80;;;16.60;99.90;;;;;;6111898;23;20022;-75
2022/09/12 01:33:11;;;;;;;1.25;1.10;;;16.60;99.90;;;;;;6114197;23;20026;-75
2022/09/12 01:36:09;;;;;;;1.30;1.10;;;16.70;99.90;;;;;;6088754;23;20402;-74
2022/09/12 01:38:43;;;;;;;1.20;1.10;;;16.80;99.90;;;;;;6088658;23;20440;-75
2022/09/12 01:41:22;;;;;;;1.40;1.20;;;16.80;99.90;;;;;;6090768;23;20573;-75
2022/09/12 01:44:14;;;;;;;1.48;1.23;;;16.90;99.90;;;;;;6115804;23;20026;-75
2022/09/12 01:46:58;;;;;;;1.10;1.00;;;16.90;99.90;;;;;;6088652;23;20025;-75
2022/09/12 01:49:31;;;;;;;1.48;1.00;;;17.00;99.90;;;;;;6088857;23;20048;-75
2022/09/12 01:52:07;;;;;;;0.82;0.75;;;17.00;99.90;;;;;;6089099;23;20403;-75
2022/09/12 01:54:35;;;;;;;1.10;1.00;;;17.10;99.90;;;;;;6114895;23;20084;-75
2022/09/12 01:57:06;;;;;;;0.90;0.90;;;17.10;99.90;;;;;;6065340;23;20469;-75
2022/09/12 01:59:43;;;;;;;1.30;1.20;;;17.20;99.90;;;;;;6089505;23;20092;-75
2022/09/12 02:02:22;;;;;;;1.15;0.95;;;17.20;99.90;;;;;;6088058;23;20504;-75
2022/09/12 02:04:51;;;;;;;1.30;1.10;;;17.30;99.90;;;;;;6088625;23;20342;-75
2022/09/12 02:07:20;;;;;;;1.08;0.98;;;17.30;99.90;;;;;;6113787;23;20061;-75
2022/09/12 02:10:00;;;;;;;1.23;1.13;;;17.40;99.90;;;;;;6089541;23;20413;-74
2022/09/12 02:12:34;;;;;;;0.75;0.75;;;17.40;99.90;;;;;;6091621;23;20022;-74
2022/09/12 02:15:03;;;;;;;0.95;0.82;;;17.40;99.90;;;;;;6088782;23;20018;-75
2022/09/12 02:17:29;;;;;;;0.85;0.80;;;17.50;99.90;;;;;;6064680;23;20032;-75
2022/09/12 02:20:01;;;;;;;1.00;0.90;;;17.50;99.90;;;;;;6064955;23;20028;-74
2022/09/12 02:22:29;;;;;;;1.35;1.00;;;17.50;99.90;;;;;;6088549;23;20026;-76
2022/09/12 02:24:59;;;;;;;0.73;0.73;;;17.60;99.90;;;;;;6065491;23;20018;-74
2022/09/12 02:27:46;;;;;;;1.15;1.00;;;17.60;99.90;;;;;;6089183;23;20351;-74
2022/09/12 02:30:16;;;;;;;1.08;0.98;;;17.60;99.90;;;;;;6115025;23;20032;-75
2022/09/12 02:33:02;;;;;;;1.10;1.00;;;17.60;99.90;;;;;;6089147;23;20045;-74
2022/09/12 02:35:52;;;;;;;1.15;1.00;;;17.70;99.90;;;;;;6088409;23;20109;-75
2022/09/12 02:38:25;;;;;;;1.00;0.85;;;17.70;99.90;;;;;;6064748;23;20343;-74
2022/09/12 02:40:52;;;;;;;0.88;0.80;;;17.60;99.90;;;;;;6089167;23;20198;-74
2022/09/12 02:43:19;;;;;;;1.27;0.90;;;17.60;99.90;;;;;;6088455;23;20026;-74
2022/09/12 02:45:46;;;;;;;2.03;0.82;;;17.60;99.90;;;;;;6088284;23;20441;-74
2022/09/12 02:48:18;;;;;;;0.70;0.70;;;17.60;99.90;;;;;;6066223;23;20080;-74
2022/09/12 02:50:44;;;;;;;0.77;0.77;;;17.50;99.90;;;;;;6090101;23;20018;-74
2022/09/12 02:53:11;;;;;;;1.00;0.90;;;17.50;99.90;;;;;;6089859;23;20112;-76
2022/09/12 02:55:38;;;;;;;1.60;0.82;;;17.40;99.90;;;;;;6065468;23;20053;-74
2022/09/12 02:58:07;;;;;;;0.85;0.65;;;17.40;99.90;;;;;;6090922;23;20022;-74
2022/09/12 03:00:55;;;;;;;1.25;1.15;;;17.40;99.90;;;;;;6089691;23;20021;-75
2022/09/12 03:03:46;;;;;;;0.70;0.60;;;17.30;99.90;;;;;;6083287;23;20536;-75
2022/09/12 03:06:33;;;;;;;0.90;0.80;;;17.20;99.90;;;;;;6091203;23;20367;-75
2022/09/12 03:09:03;;;;;;;1.35;0.70;;;17.20;99.90;;;;;;6091241;23;20407;-74
2022/09/12 03:11:49;;;;;;;0.80;0.80;;;17.10;99.90;;;;;;6066425;23;20104;-74
2022/09/12 03:14:19;;;;;;;0.70;0.70;;;17.10;99.90;;;;;;6090576;23;20052;-74
2022/09/12 03:16:53;;;;;;;1.13;0.93;;;17.10;99.90;;;;;;6115172;23;20044;-76
2022/09/12 03:19:34;;;;;;;0.82;0.82;;;17.10;99.90;;;;;;6089639;23;20037;-74
2022/09/12 03:22:38;;;;;;;1.05;0.90;;;17.10;99.90;;;;;;6089913;23;20033;-77
2022/09/12 03:25:13;;;;;;;1.42;0.90;;;17.10;99.90;;;;;;6115766;23;20022;-77
2022/09/12 03:28:08;;;;;;;0.80;0.80;;;17.00;99.90;;;;;;6090216;23;20026;-77
2022/09/12 03:30:45;;;;;;;0.52;0.45;;;17.00;99.90;;;;;;6092719;23;20574;-76
2022/09/12 03:33:17;;;;;;;0.40;0.40;;;17.00;99.90;;;;;;6092194;23;20022;-77
2022/09/12 03:35:44;;;;;;;0.70;0.70;;;17.00;99.90;;;;;;6067659;23;20202;-77
2022/09/12 03:38:11;;;;;;;0.80;0.77;;;16.90;99.90;;;;;;6091591;23;20022;-77
2022/09/12 03:40:37;;;;;;;0.77;0.60;;;16.90;99.90;;;;;;6092557;23;20044;-77
2022/09/12 03:43:05;;;;;;;1.05;0.80;;;16.90;99.90;;;;;;6092015;23;20022;-77
2022/09/12 03:45:32;;;;;;;1.17;0.70;;;16.80;99.90;;;;;;6091202;23;20022;-77
2022/09/12 03:47:59;;;;;;;1.40;0.65;;;16.80;99.90;;;;;;6092060;23;20081;-77
2022/09/12 03:50:26;;;;;;;0.70;0.70;;;16.80;99.90;;;;;;6067012;23;20018;-74
2022/09/12 03:52:53;;;;;;;0.75;0.73;;;16.80;99.90;;;;;;6091748;23;20040;-77
2022/09/12 03:55:20;;;;;;;0.80;0.80;;;16.80;99.90;;;;;;6092040;23;20030;-77
2022/09/12 03:57:47;;;;;;;0.95;0.80;;;16.80;99.90;;;;;;6091542;23;20069;-73
2022/09/12 04:00:13;;;;;;;0.70;0.70;;;16.80;99.90;;;;;;6116802;23;20438;-74
2022/09/12 04:02:45;;;;;;;0.82;0.70;;;16.80;99.90;;;;;;6091902;23;20025;-77
2022/09/12 04:05:12;;;;;;;0.73;0.73;;;16.80;99.90;;;;;;6091195;23;20342;-77
2022/09/12 04:07:38;;;;;;;0.80;0.80;;;16.80;99.90;;;;;;6067658;23;20567;-77
2022/09/12 04:10:06;;;;;;;1.23;1.02;;;16.80;99.90;;;;;;6068016;23;20018;-76
2022/09/12 04:12:34;;;;;;;0.77;0.77;;;16.80;99.90;;;;;;6091542;23;20567;-76
2022/09/12 04:15:01;;;;;;;0.73;0.70;;;16.80;99.90;;;;;;6092092;23;20029;-76
2022/09/12 04:17:27;;;;;;;0.73;0.73;;;16.80;99.90;;;;;;6067561;23;20022;-76
2022/09/12 04:19:54;;;;;;;0.70;0.68;;;16.80;99.90;;;;;;6067290;23;20029;-76
2022/09/12 04:22:21;;;;;;;1.13;0.90;;;16.70;99.90;;;;;;6117184;23;20022;-76
2022/09/12 04:24:47;;;;;;;1.73;1.33;;;16.70;99.90;;;;;;6117453;23;20482;-76
2022/09/12 04:27:14;;;;;;;0.70;0.70;;;16.70;99.90;;;;;;6068054;23;20113;-76
2022/09/12 04:29:41;;;;;;;0.65;0.60;;;16.70;99.90;;;;;;6092136;23;20022;-76
2022/09/12 04:32:07;;;;;;;0.57;0.57;;;16.70;99.90;;;;;;6066622;23;20025;-76
2022/09/12 04:34:34;;;;;;;0.68;0.68;;;16.60;99.90;;;;;;6090907;23;20391;-76
2022/09/12 04:37:01;;;;;;;0.68;0.63;;;16.60;99.90;;;;;;6091220;23;20113;-76
2022/09/12 04:39:27;;;;;;;0.60;0.60;;;16.60;99.90;;;;;;6092045;23;20018;-76
2022/09/12 04:41:54;;;;;;;0.90;0.70;;;16.60;99.90;;;;;;6091479;23;20021;-75
2022/09/12 04:44:21;;;;;;;0.70;0.70;;;16.60;99.90;;;;;;6091677;23;20018;-77
2022/09/12 04:46:48;;;;;;;0.68;0.68;;;16.60;99.90;;;;;;6066563;23;20026;-77
2022/09/12 04:49:18;;;;;;;0.80;0.80;;;16.50;99.90;;;;;;6087308;23;20098;-76
2022/09/12 04:51:45;;;;;;;0.50;0.50;;;16.50;99.90;;;;;;6113793;23;20026;-76
2022/09/12 04:54:16;;;;;;;0.68;0.68;;;16.50;99.90;;;;;;6088625;23;20017;-76
2022/09/12 04:56:44;;;;;;;0.85;0.80;;;16.50;99.90;;;;;;6086661;23;20106;-76
2022/09/12 04:59:12;;;;;;;1.67;1.00;;;16.50;99.90;;;;;;6064238;23;20093;-76
2022/09/12 05:01:39;;;;;;;1.05;0.82;;;16.50;99.90;;;;;;6086195;23;20816;-75
2022/09/12 05:04:08;;;;;;;0.90;0.73;;;16.40;99.90;;;;;;6083220;23;20089;-75
2022/09/12 05:06:36;;;;;;;0.90;0.80;;;16.40;99.90;;;;;;6058711;23;20315;-76
2022/09/12 05:09:04;;;;;;;1.13;0.70;;;16.40;99.90;;;;;;6062092;23;20030;-76
2022/09/12 05:11:32;;;;;;;0.68;0.68;;;16.40;99.90;;;;;;6085390;23;20052;-75
2022/09/12 05:14:19;;;;;;;0.70;0.70;;;16.40;99.90;;;;;;6090199;23;20018;-76
2022/09/12 05:16:46;;;;;;;0.73;0.68;;;16.40;99.90;;;;;;6061233;23;20581;-75
2022/09/12 05:19:15;;;;;;;0.63;0.60;;;16.40;99.90;;;;;;6065132;23;20025;-75
2022/09/12 05:21:41;;;;;;;0.77;0.77;;;16.50;99.90;;;;;;6088978;23;20026;-75
2022/09/12 05:24:08;;;;;;;1.08;0.82;;;16.50;99.90;;;;;;6115329;23;20085;-75
2022/09/12 05:26:35;;;;;;;0.90;0.82;;;16.50;99.90;;;;;;6087340;23;20240;-76
2022/09/12 05:29:03;;;;;;;0.70;0.70;;;16.50;99.90;;;;;;6084920;23;20022;-75
2022/09/12 05:31:30;;;;;;;0.88;0.70;;;16.50;99.90;;;;;;6085893;23;20022;-76
2022/09/12 05:33:56;;;;;;;0.80;0.70;;;16.50;99.90;;;;;;6113247;23;20026;-75
2022/09/12 05:36:25;;;;;;;0.80;0.80;;;16.50;99.90;;;;;;6086082;23;20018;-75
2022/09/12 05:38:52;;;;;;;0.88;0.77;;;16.50;99.90;;;;;;6110866;23;20025;-75
2022/09/12 05:41:20;;;;;;;0.65;0.65;;;16.50;99.90;;;;;;6085745;23;20601;-75
2022/09/12 05:43:55;;;;;;;1.00;0.90;;;16.50;99.90;;;;;;6115633;23;20093;-75
2022/09/12 05:46:24;;;;;;;1.63;0.98;;;16.60;99.90;;;;;;6086571;23;20037;-76
2022/09/12 05:48:51;;;;;;;0.95;0.85;;;16.60;99.90;;;;;;6061708;23;20388;-74
2022/09/12 05:51:26;;;;;;;1.27;0.93;;;16.70;99.90;;;;;;6087882;23;20474;-74
2022/09/12 05:53:55;;;;;;;0.80;0.80;;;16.70;99.90;;;;;;6090473;23;20050;-75
2022/09/12 05:56:29;;;;;;;0.70;0.63;;;16.70;99.90;;;;;;6089523;23;20401;-76
2022/09/12 05:58:58;;;;;;;0.68;0.68;;;16.80;99.90;;;;;;6059595;23;20109;-75
2022/09/12 06:01:25;;;;;;;1.00;0.85;;;16.80;99.90;;;;;;6076555;23;20030;-75
2022/09/12 06:03:54;;;;;;;1.48;1.02;;;16.90;99.90;;;;;;6076841;23;20045;-75
2022/09/12 06:06:22;;;;;;;0.77;0.70;;;16.90;99.90;;;;;;6076948;23;20485;-74
2022/09/12 06:08:50;;;;;;;0.90;0.73;;;17.00;99.90;;;;;;6077084;23;20097;-75
2022/09/12 06:11:19;;;;;;;0.80;0.68;;;17.00;99.90;;;;;;6078511;23;20125;-74
2022/09/12 06:13:46;;;;;;;1.15;0.82;;;17.10;99.90;;;;;;6078258;23;20026;-75
2022/09/12 06:16:14;;;;;;;1.10;1.00;;;17.20;99.90;;;;;;6077097;23;20026;-76
2022/09/12 06:18:43;;;;;;;0.75;0.70;;;17.20;99.90;;;;;;6077787;23;20646;-75
2022/09/12 06:21:11;;;;;;;0.70;0.65;;;17.30;99.90;;;;;;6077972;23;20755;-75
2022/09/12 06:23:38;;;;;;;0.68;0.60;;;17.30;99.90;;;;;;6079936;23;20022;-74
2022/09/12 06:26:06;;;;;;;0.70;0.70;;;17.40;99.90;;;;;;6077655;23;20565;-74
2022/09/12 06:28:37;;;;;;;0.57;0.50;;;17.40;99.90;;;;;;6078036;23;20026;-75
2022/09/12 06:31:05;;;;;;;0.80;0.77;;;17.50;99.90;;;;;;6055432;23;20018;-74
2022/09/12 06:33:36;;;;;;;0.60;0.57;;;17.60;99.90;;;;;;6055621;23;20219;-74
2022/09/12 06:36:10;;;;;;;1.00;0.70;;;17.60;99.90;;;;;;6055422;23;20036;-74
2022/09/12 06:38:38;;;;;;;0.60;0.60;;;17.70;99.90;;;;;;6079202;23;20210;-74
2022/09/12 06:41:06;;;;;;;0.50;0.50;;;17.90;99.90;;;;;;6079468;23;20086;-74
2022/09/12 06:43:33;;;;;;;0.73;0.70;;;18.00;99.90;;;;;;6055599;23;20026;-74
2022/09/12 06:46:00;;;;;;;0.70;0.70;;;18.10;99.90;;;;;;6078636;23;20712;-74
2022/09/12 06:48:27;;;;;;;0.65;0.60;;;18.20;99.90;;;;;;6055120;23;20410;-74
2022/09/12 06:50:57;;;;;;;0.57;0.57;;;18.40;99.90;;;;;;6055054;23;20022;-74
2022/09/12 06:53:24;;;;;;;0.70;0.63;;;18.50;99.90;;;;;;6055174;23;20026;-75
2022/09/12 06:56:00;;;;;;;1.33;0.63;;;18.60;99.90;;;;;;6080117;23;20126;-75
2022/09/12 06:58:29;;;;;;;0.60;0.60;;;18.70;99.90;;;;;;6078929;23;20356;-74
2022/09/12 07:01:02;;;;;;;0.65;0.60;;;18.80;99.90;;;;;;6082339;23;20227;-74
2022/09/12 07:03:30;;;;;;;0.80;0.50;;;18.80;99.90;;;;;;6083022;23;20097;-75
2022/09/12 07:06:00;;;;;;;0.63;0.55;;;18.90;99.90;;;;;;6084328;23;20026;-74
2022/09/12 07:08:30;;;;;;;0.70;0.70;;;19.00;99.90;;;;;;6059993;23;20489;-75
2022/09/12 07:10:58;;;;;;;0.50;0.50;;;19.00;99.90;;;;;;6085076;23;20049;-74
2022/09/12 07:13:25;;;;;;;0.55;0.50;;;19.10;99.90;;;;;;6084681;23;20025;-74
2022/09/12 07:15:52;;;;;;;1.00;0.60;;;19.20;99.90;;;;;;6109379;23;20473;-75
2022/09/12 07:18:19;;;;;;;0.40;0.40;;;19.20;99.90;;;;;;6084087;23;20033;-75
2022/09/12 07:20:46;;;;;;;0.75;0.70;;;19.30;99.90;;;;;;6109532;23;20096;-74
2022/09/12 07:23:13;;;;;;;0.40;0.40;;;19.30;99.90;;;;;;6109666;23;20052;-74
2022/09/12 07:25:39;;;;;;;0.70;0.70;;;19.40;99.90;;;;;;6060223;23;20054;-74
2022/09/12 07:28:06;;;;;;;0.50;0.50;;;19.50;99.90;;;;;;6109771;23;20390;-74
2022/09/12 07:30:35;;;;;;;0.50;0.50;;;19.60;99.90;;;;;;6109240;23;20513;-74
2022/09/12 07:33:01;;;;;;;0.40;0.40;;;19.60;99.90;;;;;;6083626;23;20060;-74
2022/09/12 07:35:32;;;;;;;0.40;0.40;;;19.60;99.90;;;;;;6109270;23;20062;-74
2022/09/12 07:37:59;;;;;;;0.45;0.40;;;19.70;99.90;;;;;;6084138;23;20036;-74
2022/09/12 07:40:25;;;;;;;0.60;0.60;;;19.70;99.90;;;;;;6083994;23;20022;-75
2022/09/12 07:42:52;;;;;;;0.60;0.52;;;19.80;99.90;;;;;;6110385;23;20464;-74
2022/09/12 07:45:19;;;;;;;0.90;0.50;;;19.70;99.90;;;;;;6109096;23;20026;-75
2022/09/12 07:47:45;;;;;;;0.40;0.40;;;19.80;99.90;;;;;;6109849;23;20026;-75
2022/09/12 07:50:12;;;;;;;0.43;0.43;;;19.90;99.90;;;;;;6108818;23;20022;-74
2022/09/12 07:52:39;;;;;;;0.52;0.43;;;19.90;99.90;;;;;;6108606;23;20163;-74
2022/09/12 07:55:06;;;;;;;0.90;0.50;;;20.00;99.90;;;;;;6082340;23;20029;-75
2022/09/12 07:57:32;;;;;;;0.55;0.55;;;20.10;99.90;;;;;;6084690;23;20025;-75
2022/09/12 07:59:59;;;;;;;0.32;0.32;;;20.20;99.90;;;;;;6109297;23;20021;-74
2022/09/12 08:02:26;;;;;;;0.30;0.30;;;20.30;99.90;;;;;;6082474;23;20623;-75
2022/09/12 08:04:53;;;;;;;0.47;0.45;;;20.40;99.90;;;;;;6083259;23;20633;-74
2022/09/12 08:07:19;;;;;;;0.28;0.28;;;20.50;99.90;;;;;;6109176;23;20350;-75
2022/09/12 08:09:46;;;;;;;0.82;0.40;;;20.60;99.90;;;;;;6083283;23;20034;-75
2022/09/12 08:12:13;;;;;;;0.38;0.30;;;20.30;99.90;;;;;;6083329;23;20025;-77
2022/09/12 08:14:40;;;;;;;0.30;0.30;;;19.60;99.90;;;;;;6083370;23;20497;-77
2022/09/12 08:17:07;;;;;;;0.50;0.50;;;19.30;99.90;;;;;;6082795;23;20462;-78
2022/09/12 08:19:33;;;;;;;0.40;0.40;;;19.00;99.90;;;;;;6083236;23;20168;-77
2022/09/12 08:22:01;;;;;;;0.35;0.35;;;18.80;99.90;;;;;;6109354;23;20029;-78
2022/09/12 08:24:28;;;;;;;0.30;0.30;;;18.70;99.90;;;;;;6083936;23;20025;-77
2022/09/12 08:26:55;;;;;;;0.30;0.30;;;18.70;99.90;;;;;;6059707;23;20032;-78
2022/09/12 08:29:21;;;;;;;0.50;0.40;;;18.70;99.90;;;;;;6084043;23;20346;-78
2022/09/12 08:31:48;;;;;;;0.40;0.40;;;18.70;99.90;;;;;;6059207;23;20025;-77
2022/09/12 08:34:23;;;;;;;0.20;0.20;;;18.70;99.90;;;;;;6084321;23;20018;-78
2022/09/12 08:36:53;;;;;;;0.32;0.32;;;18.80;99.90;;;;;;6059686;23;20026;-78
2022/09/12 08:39:20;;;;;;;0.30;0.30;;;18.70;99.90;;;;;;6083746;23;20026;-78
2022/09/12 08:41:48;;;;;;;0.82;0.50;;;18.60;99.90;;;;;;6083653;23;20022;-78
2022/09/12 08:44:46;;;;;;;0.30;0.30;;;18.70;99.90;;;;;;6088146;23;20105;-78
2022/09/12 08:47:33;;;;;;;0.40;0.40;;;18.70;99.90;;;;;;6108796;23;20470;-78
2022/09/12 08:50:05;;;;;;;0.40;0.40;;;18.60;99.90;;;;;;6082835;23;20044;-78
2022/09/12 08:52:50;;;;;;;1.10;0.50;;;18.70;99.90;;;;;;6083805;23;20022;-79
2022/09/12 08:55:37;;;;;;;0.60;0.55;;;18.80;99.90;;;;;;6084115;23;20401;-79
2022/09/12 08:58:13;;;;;;;0.40;0.40;;;18.90;99.90;;;;;;6086995;23;20417;-79
2022/09/12 09:00:47;;;;;;;0.30;0.30;;;19.00;99.90;;;;;;6082832;23;20441;-78
2022/09/12 09:03:36;;;;;;;0.30;0.30;;;19.00;99.90;;;;;;6107729;23;20053;-77
2022/09/12 09:06:17;;;;;;;0.30;0.30;;;19.10;99.90;;;;;;6083602;23;20026;-78
2022/09/12 09:08:50;;;;;;;0.43;0.43;;;19.10;99.90;;;;;;6083546;23;20036;-78
2022/09/12 09:11:25;;;;;;;0.50;0.50;;;19.10;99.90;;;;;;6110104;23;20331;-77
2022/09/12 09:17:23;;;;;;;0.50;0.50;;;19.20;99.90;;;;;;6108269;23;20488;-77
2022/09/12 09:19:55;;;;;;;0.40;0.40;;;19.20;99.90;;;;;;6085224;23;20545;-77
2022/09/12 09:22:30;;;;;;;0.30;0.30;;;19.40;99.90;;;;;;6084702;23;20337;-77
2022/09/12 09:25:00;;;;;;;0.52;0.40;;;19.50;99.90;;;;;;6060816;23;20384;-77
2022/09/12 09:27:32;;;;;;;0.50;0.50;;;19.70;99.90;;;;;;6060113;23;20021;-77
2022/09/12 09:30:14;;;;;;;0.43;0.40;;;19.70;99.90;;;;;;6085190;23;20136;-76
2022/09/12 09:32:41;;;;;;;0.30;0.30;;;20.10;99.90;;;;;;6083151;23;20081;-77
2022/09/12 09:35:17;;;;;;;0.40;0.40;;;20.50;99.90;;;;;;6082163;23;20030;-77
2022/09/12 09:38:00;;;;;;;0.43;0.43;;;20.70;99.90;;;;;;6084178;23;20018;-76
2022/09/12 09:40:55;;;;;;;0.80;0.50;;;20.90;99.90;;;;;;6059360;23;20359;-77
2022/09/12 09:43:23;;;;;;;0.40;0.40;;;21.00;99.90;;;;;;6086901;23;20018;-76
2022/09/12 09:45:50;;;;;;;0.75;0.65;;;21.00;99.90;;;;;;6083686;23;20065;-76
2022/09/12 09:48:20;;;;;;;0.50;0.50;;;21.10;99.90;;;;;;6059018;23;20350;-76
2022/09/12 09:50:48;;;;;;;0.90;0.60;;;21.10;99.90;;;;;;6057896;23;20018;-76
2022/09/12 09:53:25;;;;;;;1.45;0.57;;;21.20;99.90;;;;;;6082813;23;20025;-77
2022/09/12 09:55:52;;;;;;;0.47;0.47;;;21.20;99.90;;;;;;6059463;23;20046;-76
2022/09/12 09:58:34;;;;;;;0.52;0.50;;;21.40;99.90;;;;;;6084734;23;20045;-77
2022/09/12 10:01:13;;;;;;;0.60;0.60;;;21.40;99.90;;;;;;6084687;23;20036;-76
2022/09/12 10:03:41;;;;;;;0.63;0.50;;;21.40;99.90;;;;;;6083577;23;20659;-75
2022/09/12 10:06:33;;;;;;;0.55;0.50;;;21.50;99.90;;;;;;6084978;23;20450;-76
2022/09/12 10:09:09;;;;;;;0.40;0.40;;;21.60;99.90;;;;;;6085478;23;20080;-76
2022/09/12 10:11:35;;;;;;;0.50;0.50;;;21.70;99.90;;;;;;6084960;23;20355;-76
2022/09/12 10:14:03;;;;;;;0.40;0.40;;;21.80;99.90;;;;;;6061482;23;20041;-76
2022/09/12 10:16:32;;;;;;;1.25;0.50;;;22.00;99.90;;;;;;6083978;23;20342;-76
2022/09/12 10:19:00;;;;;;;0.60;0.60;;;22.10;99.90;;;;;;6083991;23;20022;-76
2022/09/12 10:21:34;;;;;;;1.25;0.70;;;22.30;99.90;;;;;;6060945;23;20028;-75
2022/09/12 10:24:24;;;;;;;0.70;0.50;;;22.40;99.90;;;;;;6084933;23;20033;-76
2022/09/12 10:26:56;;;;;;;1.13;0.70;;;22.60;99.90;;;;;;6084276;23;20033;-76
2022/09/12 10:29:30;;;;;;;0.63;0.60;;;22.90;99.90;;;;;;6085300;23;20034;-76
2022/09/12 10:31:58;;;;;;;0.60;0.57;;;23.30;99.90;;;;;;6083901;23;20025;-76
2022/09/12 10:34:31;;;;;;;0.98;0.80;;;23.60;99.90;;;;;;6083900;23;20495;-76
2022/09/12 10:37:15;;;;;;;0.70;0.70;;;23.70;99.90;;;;;;6061059;23;20581;-76
2022/09/12 10:39:43;;;;;;;0.60;0.60;;;23.80;99.90;;;;;;6060531;23;20030;-76
2022/09/12 10:42:13;;;;;;;0.60;0.60;;;23.90;99.90;;;;;;6084115;23;20030;-76
2022/09/12 10:44:39;;;;;;;0.80;0.68;;;24.10;99.90;;;;;;6084925;23;20418;-76
2022/09/12 10:47:20;;;;;;;0.85;0.70;;;24.10;99.90;;;;;;6083590;23;20025;-76
2022/09/12 10:49:49;;;;;;;0.85;0.73;;;24.10;99.90;;;;;;6084530;23;20061;-76
2022/09/12 10:52:20;;;;;;;0.98;0.68;;;24.20;99.90;;;;;;6109172;23;20062;-75
2022/09/12 10:54:47;;;;;;;1.52;0.70;;;24.40;99.90;;;;;;6083957;23;20109;-76
2022/09/12 10:57:45;;;;;;;1.13;0.90;;;24.70;99.90;;;;;;6059822;23;20097;-76
2022/09/12 11:00:16;;;;;;;1.38;0.77;;;25.00;99.90;;;;;;6110282;23;20041;-76
2022/09/12 11:03:06;;;;;;;0.95;0.63;;;25.20;99.90;;;;;;6082828;23;20026;-76
2022/09/12 11:05:50;;;;;;;1.17;0.90;;;25.30;99.90;;;;;;6054764;23;20430;-75
2022/09/12 11:08:35;;;;;;;1.23;0.88;;;25.30;99.90;;;;;;6086304;23;20026;-76
2022/09/12 11:11:39;;;;;;;0.90;0.80;;;25.50;99.90;;;;;;6109505;23;20036;-76
2022/09/12 11:14:21;;;;;;;1.42;1.20;;;25.60;99.90;;;;;;6110563;23;20048;-76
2022/09/12 11:16:54;;;;;;;1.58;0.90;;;25.70;99.90;;;;;;6082683;23;20040;-76
2022/09/12 11:19:31;;;;;;;1.35;0.80;;;25.80;99.90;;;;;;6083932;23;20025;-76
2022/09/12 11:22:18;;;;;;;1.27;0.98;;;26.10;99.90;;;;;;6083534;23;20022;-76
2022/09/12 11:25:14;;;;;;;1.67;0.93;;;26.10;99.90;;;;;;6084315;23;20458;-76
2022/09/12 11:28:05;;;;;;;1.05;0.90;;;26.10;99.90;;;;;;6035758;23;20022;-76
2022/09/12 11:30:48;;;;;;;0.93;0.80;;;26.10;99.90;;;;;;6083503;23;20053;-77
2022/09/12 11:33:43;;;;;;;0.70;0.60;;;26.30;99.90;;;;;;6085319;23;20021;-76
2022/09/12 11:36:49;;;;;;;1.80;0.90;;;26.50;99.90;;;;;;6060894;23;20022;-76
2022/09/12 11:39:21;;;;;;;0.75;0.70;;;26.80;99.90;;;;;;6109634;23;20455;-76
2022/09/12 11:41:54;;;;;;;1.27;0.70;;;27.10;99.90;;;;;;6082528;23;20022;-76
2022/09/12 11:44:22;;;;;;;0.95;0.73;;;27.20;99.90;;;;;;6059591;23;20025;-77
2022/09/12 11:46:49;;;;;;;0.88;0.60;;;27.10;99.90;;;;;;6082301;23;20026;-76
2022/09/12 11:49:42;;;;;;;1.02;0.90;;;27.30;99.90;;;;;;6083618;23;20053;-76
2022/09/12 11:52:13;;;;;;;0.73;0.55;;;27.70;99.90;;;;;;6082505;23;20026;-77
2022/09/12 11:55:16;;;;;;;0.55;0.55;;;27.90;99.90;;;;;;6083058;23;20022;-77
2022/09/12 11:57:53;;;;;;;0.80;0.60;;;28.10;99.90;;;;;;6083695;23;20439;-76
2022/09/12 12:00:40;;;;;;;0.95;0.60;;;28.30;99.90;;;;;;6082473;23;20026;-77
2022/09/12 12:03:12;;;;;;;0.57;0.50;;;28.60;99.90;;;;;;6083145;23;20033;-76
2022/09/12 12:06:00;;;;;;;0.30;0.30;;;28.60;99.90;;;;;;6058773;23;20026;-76
2022/09/12 12:08:28;;;;;;;0.40;0.35;;;28.40;99.90;;;;;;6058254;23;20100;-77
2022/09/12 12:11:00;;;;;;;0.40;0.40;;;27.90;99.90;;;;;;6082986;23;20030;-76
2022/09/12 12:13:33;;;;;;;0.38;0.38;;;27.80;99.90;;;;;;6060392;23;20028;-77
2022/09/12 12:16:23;;;;;;;0.80;0.45;;;27.60;99.90;;;;;;6082353;23;20024;-76
2022/09/12 12:19:13;;;;;;;0.50;0.50;;;27.50;99.90;;;;;;6082255;23;20033;-76
2022/09/12 12:21:47;;;;;;;0.30;0.30;;;27.30;99.90;;;;;;6107014;23;20021;-77
2022/09/12 12:24:14;;;;;;;0.30;0.30;;;27.80;99.90;;;;;;6083095;23;20309;-76
2022/09/12 12:26:49;;;;;;;0.40;0.40;;;28.30;99.90;;;;;;6082911;23;20022;-77
2022/09/12 12:29:16;;;;;;;1.75;0.50;;;28.60;99.90;;;;;;6083201;23;20425;-77
2022/09/12 12:31:58;;;;;;;0.47;0.47;;;28.90;99.90;;;;;;6108910;23;20033;-77
2022/09/12 12:34:27;;;;;;;1.13;0.85;;;29.20;99.90;;;;;;6082453;23;20625;-77
2022/09/12 12:36:54;;;;;;;0.40;0.40;;;29.40;99.90;;;;;;6082725;23;20541;-77
2022/09/12 12:39:33;;;;;;;0.80;0.60;;;29.70;99.90;;;;;;6082405;23;20092;-77
2022/09/12 12:42:00;;;;;;;0.55;0.47;;;29.80;99.90;;;;;;6109050;23;20025;-78
2022/09/12 12:44:50;;;;;;;0.40;0.40;;;29.80;99.90;;;;;;6082821;23;20014;-80
2022/09/12 12:47:22;;;;;;;0.30;0.30;;;30.00;99.00;;;;;;6042665;23;20024;-80
2022/09/12 12:49:54;;;;;;;0.30;0.30;;;30.40;99.50;;;;;;6058291;23;20520;-80
2022/09/12 12:52:21;;;;;;;0.50;0.50;;;30.60;97.80;;;;;;6081864;23;20066;-80
2022/09/12 12:54:50;;;;;;;0.40;0.40;;;30.90;99.50;;;;;;6058355;23;20479;-79
2022/09/12 12:57:27;;;;;;;0.70;0.50;;;31.40;98.00;;;;;;6081944;23;20022;-80
2022/09/12 13:00:00;;;;;;;0.38;0.38;;;31.40;97.60;;;;;;6082573;23;20029;-80
2022/09/12 13:02:36;;;;;;;0.90;0.45;;;31.60;97.00;;;;;;6081344;23;20018;-79
2022/09/12 13:05:05;;;;;;;0.40;0.40;;;31.80;96.10;;;;;;6081343;23;20049;-79
2022/09/12 13:07:36;;;;;;;0.57;0.43;;;32.20;96.60;;;;;;6083036;23;20029;-80
2022/09/12 13:10:05;;;;;;;0.45;0.30;;;32.60;94.90;;;;;;6082437;23;20025;-80
2022/09/12 13:12:44;;;;;;;0.20;0.20;;;32.80;94.40;;;;;;6082088;23;20297;-79
2022/09/12 13:15:36;;;;;;;0.35;0.35;;;33.00;94.40;;;;;;6081743;23;20491;-79
2022/09/12 13:18:09;;;;;;;0.55;0.38;;;33.10;94.50;;;;;;6107350;23;20037;-79
2022/09/12 13:20:43;;;;;;;0.57;0.45;;;33.30;93.40;;;;;;6081351;23;20101;-79